Details From UTTT - Yuzhny
To UTDD - DUSHANBE
Flight Number -
Tags generated
Created
Modified
Stats Distance 165 nm / 305 km
Max Altitude 18,700 ft / 5,700 m
Waypoints 5
Social Downloads 0
Likes 0
Share VATSIM

Download

Looking for another format? Having issues loading an existing format? Contact us
Advertisement - Login to hide

Notes

Basic altitude profile: - Ascent Rate: 2500ft/min - Ascent Speed: 250kts - Cruise Altitude: 35000ft - Cruise Speed: 420kts - Descent Rate: 1500ft/min - Descent Speed: 250kts Options: - Use NATs: yes - Use PACOTS: yes - Use low airways: yes - Use high airways: yes

Route

UTTT PF G3 SX UTDD

ID Type Via Altitude Latitude Longitude Leg Dist Tot Dist Heading (true) Name
O UTTT APT - 0 ft / 0 m 41.25552˚ 69.28165˚ - 0 nm - Yuzhny
PF NDB - 18,400 ft / 5,608 m 40.05000˚ 68.95000˚ 73 nm 73 nm 192° / 192° URA TYUBE NDB
ZUREN FIX G3 (AWY-LO) 18,700 ft / 5,700 m 39.33333˚ 68.88333˚ 43 nm 117 nm 184° / 184° -
SX NDB G3 (AWY-LO) 18,700 ft / 5,700 m 38.84333˚ 68.84000˚ 29 nm 146 nm 184° / 184° PUGUS NDB
O UTDD APT - 0 ft / 0 m 38.54349˚ 68.82464˚ 18 nm 164 nm 182° / 182° DUSHANBE

Altitude Profile

Advertisement - Login to hide

Weather


0- 5 10 15 20 25 30 35+ Temperature / ° C

Clouds and Precipitation
Forecast for 2017-12-17 18:00 UTC. Updated 44 minutes ago

Ground ~20,000 ft ~40,000 ft Winds

UTTT

Details ICAO UTTT (TAS)
Name Yuzhny
Region Tajikistan, Turkmenistan and Uzbekistan
Timezone Asia/Tashkent (UTC+5.0)
Stats Elevation 1,417 ft / 432 m (AMSL)
Location 41.255517° 69.281646°
Runways 2
Magnetic Variation 5.402° E

METAR

UTTT 171730Z 22004KT 3000 BR FEW066CB 04/00 Q1028 R08R/CLRD70 NOSIG

Decode

TAF

Not found

Departure Runways

ID Width Length Bearing (true) Bearing (mag) Surface Threshold Offset Overrun Length
08L 197 ft / 60 m 13,135 ft / 4,004 m 76.98° 71.58° Concrete 820 ft / 250 m 0 ft / 0 m
08R 148 ft / 45 m 12,824 ft / 3,909 m 76.99° 71.59° Asphalt 650 ft / 198 m 0 ft / 0 m
26L 148 ft / 45 m 12,824 ft / 3,909 m 257.02° 251.62° Asphalt 680 ft / 207 m 0 ft / 0 m
26R 197 ft / 60 m 13,135 ft / 4,004 m 257.02° 251.62° Concrete 820 ft / 250 m 0 ft / 0 m

UTDD

Details ICAO UTDD (DYU)
Name DUSHANBE
Region Tajikistan, Turkmenistan and Uzbekistan
Timezone Asia/Dushanbe (UTC+5.0)
Stats Elevation 2,575 ft / 785 m (AMSL)
Location 38.543486° 68.824637°
Runways 1
Magnetic Variation 4.445° E

METAR

UTDD 171800Z 10002MPS 6000 BKN100 OVC120 07/M01 Q1026 R09/D NOSIG RMK QFE701/0934

Decode

TAF

TAF TAF UTDD 171500Z 1716/1804 VRB02MPS 5000 BR FU SCT066CB BKN100 TEMPO 1716/1804 08005MPS 2100 BR FU

Decode

Destination Runways

ID Width Length Bearing (true) Bearing (mag) Surface Threshold Offset Overrun Length
09 147 ft / 45 m 10,157 ft / 3,096 m 90.06° 85.61° Asphalt 0 ft / 0 m 0 ft / 0 m
27 147 ft / 45 m 10,157 ft / 3,096 m 270.08° 265.63° Asphalt 1,335 ft / 407 m 0 ft / 0 m

Popular Alternatives